createdAt,value
2022-12-13T00:01:17.071Z,-9.30
2022-12-13T00:03:43.811Z,-9.35
2022-12-13T00:06:12.104Z,-9.36
2022-12-13T00:08:38.911Z,-9.34
2022-12-13T00:11:06.721Z,-9.34
2022-12-13T00:13:33.675Z,-9.34
2022-12-13T00:16:01.126Z,-9.35
2022-12-13T00:18:27.851Z,-9.36
2022-12-13T00:20:54.387Z,-9.37
2022-12-13T00:23:23.130Z,-9.34
2022-12-13T00:25:49.598Z,-9.34
2022-12-13T00:28:16.292Z,-9.35
2022-12-13T00:30:43.179Z,-9.34
2022-12-13T00:33:09.884Z,-9.29
2022-12-13T00:35:39.882Z,-9.28
2022-12-13T00:38:06.375Z,-9.28
2022-12-13T00:40:34.252Z,-9.30
2022-12-13T00:43:00.721Z,-9.31
2022-12-13T00:45:27.178Z,-9.30
2022-12-13T00:47:54.089Z,-9.31
2022-12-13T00:50:20.558Z,-9.37
2022-12-13T00:52:47.200Z,-9.40
2022-12-13T00:55:13.877Z,-9.40
2022-12-13T00:57:43.430Z,-9.38
2022-12-13T01:00:10.874Z,-9.42
2022-12-13T01:02:37.624Z,-9.42
2022-12-13T01:05:04.460Z,-9.42
2022-12-13T01:07:30.994Z,-9.43
2022-12-13T01:09:57.878Z,-9.50
2022-12-13T01:12:24.551Z,-9.55
2022-12-13T01:14:56.058Z,-9.59
2022-12-13T01:17:22.760Z,-9.62
2022-12-13T01:19:49.270Z,-9.66
2022-12-13T01:22:15.730Z,-9.73
2022-12-13T01:24:42.423Z,-9.83
2022-12-13T01:27:09.104Z,-9.88
2022-12-13T01:29:35.746Z,-9.89
2022-12-13T01:32:03.889Z,-9.93
2022-12-13T01:34:30.383Z,-9.93
2022-12-13T01:36:58.473Z,-9.92
2022-12-13T01:39:26.682Z,-9.93
2022-12-13T01:42:00.060Z,-9.93
2022-12-13T01:44:45.547Z,-10.01
2022-12-13T01:47:15.304Z,-10.09
2022-12-13T01:49:41.902Z,-10.17
2022-12-13T01:52:11.491Z,-10.18
2022-12-13T01:54:46.938Z,-10.28
2022-12-13T01:57:15.372Z,-10.33
2022-12-13T01:59:42.514Z,-10.34
2022-12-13T02:02:10.257Z,-10.36
2022-12-13T02:04:45.317Z,-10.35
2022-12-13T02:07:13.025Z,-10.36
2022-12-13T02:09:39.712Z,-10.34
2022-12-13T02:12:06.607Z,-10.38
2022-12-13T02:14:34.609Z,-10.41
2022-12-13T02:17:04.903Z,-10.41
2022-12-13T02:19:47.709Z,-10.41
2022-12-13T02:22:26.915Z,-10.45
2022-12-13T02:25:04.223Z,-10.48
2022-12-13T02:27:48.663Z,-10.41
2022-12-13T02:30:24.465Z,-10.36
2022-12-13T02:32:59.262Z,-10.34
2022-12-13T02:35:28.111Z,-10.29
2022-12-13T02:37:59.839Z,-10.27
2022-12-13T02:40:27.279Z,-10.24
2022-12-13T02:42:58.842Z,-10.22
2022-12-13T02:45:29.914Z,-10.23
2022-12-13T02:47:57.779Z,-10.20
2022-12-13T02:50:26.002Z,-10.14
2022-12-13T02:52:53.039Z,-10.11
2022-12-13T02:55:21.150Z,-10.17
2022-12-13T02:57:50.583Z,-10.23
2022-12-13T03:00:19.291Z,-10.30
2022-12-13T03:02:55.930Z,-10.30
2022-12-13T03:05:46.155Z,-10.27
2022-12-13T03:08:22.250Z,-10.29
2022-12-13T03:10:53.856Z,-10.29
2022-12-13T03:13:40.633Z,-10.28
2022-12-13T03:16:11.996Z,-10.25
2022-12-13T03:18:40.880Z,-10.21
2022-12-13T03:21:09.148Z,-10.20
2022-12-13T03:23:35.712Z,-10.22
2022-12-13T03:26:04.849Z,-10.24
2022-12-13T03:28:31.328Z,-10.29
2022-12-13T03:30:58.598Z,-10.33
2022-12-13T03:33:25.113Z,-10.36
2022-12-13T03:35:52.962Z,-10.35
2022-12-13T03:38:22.576Z,-10.42
2022-12-13T03:40:50.403Z,-10.48
2022-12-13T03:43:22.287Z,-10.53
2022-12-13T03:45:49.588Z,-10.61
2022-12-13T03:48:21.882Z,-10.67
2022-12-13T03:50:49.494Z,-10.75
2022-12-13T03:53:22.338Z,-10.79
2022-12-13T03:56:00.935Z,-10.87
2022-12-13T03:58:36.004Z,-10.96
2022-12-13T04:01:04.506Z,-11.03
2022-12-13T04:03:30.965Z,-11.10
2022-12-13T04:05:57.429Z,-11.13
2022-12-13T04:08:25.403Z,-11.14
2022-12-13T04:10:51.911Z,-11.17
2022-12-13T04:13:33.283Z,-11.16
2022-12-13T04:16:00.132Z,-11.17
2022-12-13T04:18:26.686Z,-11.16
2022-12-13T04:20:53.235Z,-11.16
2022-12-13T04:23:19.760Z,-11.18
2022-12-13T04:25:47.692Z,-11.20
2022-12-13T04:28:22.665Z,-11.21
2022-12-13T04:30:52.964Z,-11.22
2022-12-13T04:33:21.158Z,-11.24
2022-12-13T04:35:47.723Z,-11.27
2022-12-13T04:38:14.192Z,-11.29
2022-12-13T04:40:40.796Z,-11.25
2022-12-13T04:43:08.732Z,-11.27
2022-12-13T04:45:35.289Z,-11.25
2022-12-13T04:48:01.852Z,-11.22
2022-12-13T04:50:28.329Z,-11.17
2022-12-13T04:52:54.870Z,-11.12
2022-12-13T04:55:21.361Z,-11.02
2022-12-13T04:57:47.821Z,-10.98
2022-12-13T05:00:16.186Z,-10.99
2022-12-13T05:02:42.759Z,-11.03
2022-12-13T05:05:09.973Z,-11.07
2022-12-13T05:07:42.338Z,-11.08
2022-12-13T05:10:10.047Z,-11.10
2022-12-13T05:12:36.546Z,-11.14
2022-12-13T05:15:03.549Z,-11.16
2022-12-13T05:17:31.763Z,-11.19
2022-12-13T05:19:58.286Z,-11.18
2022-12-13T05:22:24.932Z,-11.20
2022-12-13T05:24:51.467Z,-11.21
2022-12-13T05:27:25.966Z,-11.16
2022-12-13T05:30:02.290Z,-11.13
2022-12-13T05:32:33.852Z,-11.08
2022-12-13T05:35:09.509Z,-11.08
2022-12-13T05:37:35.990Z,-11.08
2022-12-13T05:40:02.481Z,-11.10
2022-12-13T05:42:28.960Z,-11.14
2022-12-13T05:44:55.505Z,-11.17
2022-12-13T05:47:22.105Z,-11.17
2022-12-13T05:49:50.148Z,-11.16
2022-12-13T05:52:17.798Z,-11.14
2022-12-13T05:54:44.310Z,-11.13
2022-12-13T05:57:10.769Z,-11.13
2022-12-13T05:59:37.267Z,-11.15
2022-12-13T06:02:03.893Z,-11.19
2022-12-13T06:04:30.660Z,-11.23
2022-12-13T06:06:58.557Z,-11.28
2022-12-13T06:09:25.177Z,-11.34
2022-12-13T06:11:51.718Z,-11.40
2022-12-13T06:14:28.208Z,-11.47
2022-12-13T06:16:54.689Z,-11.52
2022-12-13T06:19:21.797Z,-11.57
2022-12-13T06:21:48.490Z,-11.59
2022-12-13T06:24:17.249Z,-11.60
2022-12-13T06:26:45.308Z,-11.55
2022-12-13T06:29:12.545Z,-11.47
2022-12-13T06:31:52.023Z,-11.47
2022-12-13T06:34:18.637Z,-11.47
2022-12-13T06:36:45.094Z,-11.45
2022-12-13T06:39:11.603Z,-11.43
2022-12-13T06:41:39.521Z,-11.45
2022-12-13T06:44:06.112Z,-11.46
2022-12-13T06:46:32.712Z,-11.47
2022-12-13T06:48:59.333Z,-11.46
2022-12-13T06:51:32.442Z,-11.47
2022-12-13T06:54:00.914Z,-11.46
2022-12-13T06:56:27.674Z,-11.48
2022-12-13T06:59:01.768Z,-11.51
2022-12-13T07:01:36.776Z,-11.50
2022-12-13T07:04:04.860Z,-11.47
2022-12-13T07:06:31.364Z,-11.48
2022-12-13T07:08:58.122Z,-11.47
2022-12-13T07:11:25.854Z,-11.42
2022-12-13T07:13:52.527Z,-11.41
2022-12-13T07:16:20.980Z,-11.41
2022-12-13T07:18:47.530Z,-11.39
2022-12-13T07:21:21.758Z,-11.33
2022-12-13T07:23:55.347Z,-11.25
2022-12-13T07:26:22.165Z,-11.17
2022-12-13T07:28:54.526Z,-11.07
2022-12-13T07:31:24.268Z,-10.99
2022-12-13T07:33:51.281Z,-10.94
2022-12-13T07:36:18.724Z,-10.87
2022-12-13T07:38:45.273Z,-10.81
2022-12-13T07:41:12.031Z,-10.83
2022-12-13T07:43:38.590Z,-10.78
2022-12-13T07:46:06.386Z,-10.75
2022-12-13T07:48:34.396Z,-10.72
2022-12-13T07:51:01.710Z,-10.70
2022-12-13T07:53:28.600Z,-10.66
2022-12-13T07:56:01.542Z,-10.61
2022-12-13T07:58:30.034Z,-10.50
2022-12-13T08:00:59.149Z,-10.37
2022-12-13T08:03:26.579Z,-10.29
2022-12-13T08:06:00.131Z,-10.20
2022-12-13T08:08:30.872Z,-10.04
2022-12-13T08:11:01.405Z,-9.84
2022-12-13T08:13:28.179Z,-9.66
2022-12-13T08:15:57.412Z,-9.51
2022-12-13T08:18:24.180Z,-9.40
2022-12-13T08:20:50.631Z,-9.30
2022-12-13T08:23:18.737Z,-9.19
2022-12-13T08:25:51.449Z,-9.09
2022-12-13T08:28:18.420Z,-8.98
2022-12-13T08:30:44.935Z,-8.89
2022-12-13T08:33:11.420Z,-8.73
2022-12-13T08:35:38.346Z,-8.57
2022-12-13T08:38:08.069Z,-8.44
2022-12-13T08:40:35.981Z,-8.35
2022-12-13T08:43:02.907Z,-8.27
2022-12-13T08:45:29.471Z,-8.14
2022-12-13T08:47:57.571Z,-7.98
2022-12-13T08:50:24.122Z,-7.82
2022-12-13T08:52:51.290Z,-7.66
2022-12-13T08:55:21.102Z,-7.54
2022-12-13T08:58:01.022Z,-7.35
2022-12-13T09:00:28.060Z,-7.15
2022-12-13T09:02:57.253Z,-6.98
2022-12-13T09:05:33.479Z,-6.86
2022-12-13T09:08:23.642Z,-6.71
2022-12-13T09:10:55.981Z,-6.51
2022-12-13T09:13:32.150Z,-6.33
2022-12-13T09:16:01.430Z,-6.23
2022-12-13T09:18:34.707Z,-6.10
2022-12-13T09:21:11.894Z,-5.96
2022-12-13T09:23:46.253Z,-5.80
2022-12-13T09:26:15.026Z,-5.64
2022-12-13T09:28:43.065Z,-5.51
2022-12-13T09:31:10.177Z,-5.41
2022-12-13T09:33:41.321Z,-5.31
2022-12-13T09:36:10.565Z,-5.11
2022-12-13T09:38:37.154Z,-4.86
2022-12-13T09:41:10.367Z,-4.57
2022-12-13T09:43:48.721Z,-4.30
2022-12-13T09:46:22.658Z,-4.08
2022-12-13T09:48:51.460Z,-3.86
2022-12-13T09:51:29.886Z,-3.69
2022-12-13T09:54:04.992Z,-3.45
2022-12-13T09:56:32.995Z,-3.20
2022-12-13T09:59:00.909Z,-2.95
2022-12-13T10:01:27.605Z,-2.72
2022-12-13T10:03:55.787Z,-2.53
2022-12-13T10:06:24.123Z,-2.33
2022-12-13T10:08:57.710Z,-2.13
2022-12-13T10:11:31.628Z,-1.89
2022-12-13T10:14:02.612Z,-1.68
2022-12-13T10:16:36.124Z,-1.50
2022-12-13T10:19:13.072Z,-1.30
2022-12-13T10:22:02.131Z,-1.12
2022-12-13T10:24:37.352Z,-0.97
2022-12-13T10:27:11.340Z,-0.82
2022-12-13T10:29:55.869Z,-0.64
2022-12-13T10:32:22.473Z,-0.44
2022-12-13T10:34:49.135Z,-0.30
2022-12-13T10:37:20.376Z,-0.12
2022-12-13T10:39:46.846Z,0.07
2022-12-13T10:42:14.697Z,0.20
2022-12-13T10:45:08.080Z,0.45
2022-12-13T10:47:36.328Z,0.63
2022-12-13T10:50:03.434Z,0.71
2022-12-13T10:52:31.938Z,0.82
2022-12-13T10:55:01.147Z,0.94
2022-12-13T10:57:28.266Z,1.10
2022-12-13T10:59:56.340Z,1.33
2022-12-13T11:02:31.401Z,1.54
2022-12-13T11:04:58.845Z,1.74
2022-12-13T11:07:27.448Z,1.91
2022-12-13T11:09:54.032Z,2.00
2022-12-13T11:12:22.356Z,1.96
2022-12-13T11:14:51.497Z,1.84
2022-12-13T11:17:21.179Z,1.68
2022-12-13T11:19:49.092Z,1.49
2022-12-13T11:22:19.775Z,1.35
2022-12-13T11:24:49.977Z,1.31
2022-12-13T11:27:25.729Z,1.30
2022-12-13T11:30:00.632Z,1.46
2022-12-13T11:32:36.169Z,1.72
2022-12-13T11:35:07.382Z,1.99
2022-12-13T11:37:40.455Z,2.07
2022-12-13T11:40:11.907Z,2.12
2022-12-13T11:42:40.400Z,2.21
2022-12-13T11:45:13.525Z,2.31
2022-12-13T11:47:58.092Z,2.44
2022-12-13T11:50:33.566Z,2.50
2022-12-13T11:53:05.909Z,2.54
2022-12-13T11:55:35.773Z,2.79
2022-12-13T11:58:09.757Z,3.12
2022-12-13T12:00:39.948Z,3.25
2022-12-13T12:03:14.073Z,3.31
2022-12-13T12:05:43.013Z,3.43
2022-12-13T12:11:03.535Z,3.60
2022-12-13T12:13:33.265Z,3.51
2022-12-13T12:16:06.555Z,3.81
2022-12-13T12:18:34.808Z,4.19
2022-12-13T12:21:08.995Z,4.61
2022-12-13T12:23:52.334Z,4.98
2022-12-13T12:26:23.726Z,5.29
2022-12-13T12:29:09.278Z,5.47
2022-12-13T12:31:50.565Z,5.60
2022-12-13T12:34:27.318Z,5.68
2022-12-13T12:37:02.736Z,5.67
2022-12-13T12:39:36.877Z,5.47
2022-12-13T12:42:18.302Z,4.86
2022-12-13T12:44:51.434Z,3.98
2022-12-13T12:50:22.644Z,2.57
2022-12-13T12:52:56.421Z,2.09
2022-12-13T12:55:28.372Z,1.74
2022-12-13T12:58:01.817Z,1.48
2022-12-13T13:00:30.469Z,1.16
2022-12-13T13:03:01.717Z,0.87
2022-12-13T13:05:34.236Z,0.62
2022-12-13T13:08:03.968Z,0.41
2022-12-13T13:10:30.522Z,0.16
2022-12-13T13:13:11.598Z,-0.10
2022-12-13T13:15:55.656Z,-0.30
2022-12-13T13:18:42.003Z,-0.46
2022-12-13T13:21:41.695Z,-0.62
2022-12-13T13:24:26.181Z,-0.85
2022-12-13T13:26:55.743Z,-1.07
2022-12-13T13:29:33.387Z,-1.26
2022-12-13T13:32:02.424Z,-1.45
2022-12-13T13:34:35.482Z,-1.57
2022-12-13T13:37:02.824Z,-1.64
2022-12-13T13:39:54.450Z,-1.67
2022-12-13T13:42:23.027Z,-1.73
2022-12-13T13:45:08.159Z,-1.79
2022-12-13T13:47:36.689Z,-1.82
2022-12-13T13:50:13.023Z,-1.88
2022-12-13T13:52:46.877Z,-2.00
2022-12-13T13:55:24.616Z,-2.13
2022-12-13T13:58:13.045Z,-2.25
2022-12-13T14:01:15.493Z,-2.41
2022-12-13T14:03:57.953Z,-2.59
2022-12-13T14:06:40.016Z,-2.69
2022-12-13T14:09:25.146Z,-2.77
2022-12-13T14:12:11.293Z,-2.80
2022-12-13T14:14:52.654Z,-2.82
2022-12-13T14:17:42.676Z,-2.89
2022-12-13T14:20:22.611Z,-2.96
2022-12-13T14:22:51.634Z,-3.02
2022-12-13T14:25:31.780Z,-3.07
2022-12-13T14:28:02.108Z,-3.12
2022-12-13T14:30:30.511Z,-3.12
2022-12-13T14:32:57.475Z,-3.12
2022-12-13T14:35:27.292Z,-3.14
2022-12-13T14:37:59.068Z,-3.18
2022-12-13T14:40:28.714Z,-3.22
2022-12-13T14:42:55.258Z,-3.24
2022-12-13T14:45:23.010Z,-3.26
2022-12-13T14:47:49.573Z,-3.28
2022-12-13T14:50:17.952Z,-3.26
2022-12-13T14:52:47.440Z,-3.22
2022-12-13T14:55:22.588Z,-3.17
2022-12-13T14:57:51.575Z,-3.16
2022-12-13T15:00:22.951Z,-3.19
2022-12-13T15:02:50.725Z,-3.21
2022-12-13T15:05:28.857Z,-3.21
2022-12-13T15:07:57.866Z,-3.21
2022-12-13T15:10:26.031Z,-3.22
2022-12-13T15:12:53.241Z,-3.23
2022-12-13T15:15:23.223Z,-3.25
2022-12-13T15:17:49.845Z,-3.27
2022-12-13T15:20:22.700Z,-3.28
2022-12-13T15:23:06.169Z,-3.32
2022-12-13T15:25:40.157Z,-3.32
2022-12-13T15:28:08.019Z,-3.33
2022-12-13T15:30:35.356Z,-3.35
2022-12-13T15:33:01.892Z,-3.35
2022-12-13T15:35:28.828Z,-3.35
2022-12-13T15:37:55.387Z,-3.35
2022-12-13T15:40:23.265Z,-3.34
2022-12-13T15:42:51.170Z,-3.37
2022-12-13T15:45:19.806Z,-3.38
2022-12-13T15:47:47.032Z,-3.39
2022-12-13T15:50:29.022Z,-3.37
2022-12-13T15:52:59.091Z,-3.36
2022-12-13T15:55:32.437Z,-3.38
2022-12-13T15:57:59.303Z,-3.40
2022-12-13T16:00:30.643Z,-3.44
2022-12-13T16:03:01.668Z,-3.44
2022-12-13T16:05:36.860Z,-3.44
2022-12-13T16:08:14.105Z,-3.43
2022-12-13T16:10:47.215Z,-3.41
2022-12-13T16:13:26.490Z,-3.40
2022-12-13T16:16:00.488Z,-3.40
2022-12-13T16:18:42.529Z,-3.42
2022-12-13T16:21:10.091Z,-3.45
2022-12-13T16:23:36.639Z,-3.43
2022-12-13T16:26:08.913Z,-3.44
2022-12-13T16:28:36.143Z,-3.48
2022-12-13T16:31:07.091Z,-3.51
2022-12-13T16:33:33.956Z,-3.53
2022-12-13T16:36:00.823Z,-3.56
2022-12-13T16:38:27.650Z,-3.60
2022-12-13T16:40:55.072Z,-3.57
2022-12-13T16:43:31.231Z,-3.56
2022-12-13T16:46:00.367Z,-3.58
2022-12-13T16:48:47.218Z,-3.66
2022-12-13T16:51:13.711Z,-3.65
2022-12-13T16:53:40.221Z,-3.65
2022-12-13T16:56:11.154Z,-3.67
2022-12-13T16:58:38.997Z,-3.68
2022-12-13T17:01:08.634Z,-3.70
2022-12-13T17:03:36.170Z,-3.70
2022-12-13T17:06:02.670Z,-3.71
2022-12-13T17:08:29.250Z,-3.79
2022-12-13T17:10:57.766Z,-3.82
2022-12-13T17:13:25.023Z,-3.83
2022-12-13T17:15:59.430Z,-3.85
2022-12-13T17:18:26.835Z,-3.90
2022-12-13T17:20:58.244Z,-3.94
2022-12-13T17:23:26.254Z,-4.00
2022-12-13T17:25:58.450Z,-4.02
2022-12-13T17:28:25.381Z,-4.01
2022-12-13T17:30:54.829Z,-3.99
2022-12-13T17:33:22.022Z,-3.92
2022-12-13T17:35:48.693Z,-3.95
2022-12-13T17:38:15.197Z,-3.99
2022-12-13T17:40:41.696Z,-3.99
2022-12-13T17:43:10.367Z,-4.03
2022-12-13T17:45:42.797Z,-4.08
2022-12-13T17:48:10.878Z,-4.08
2022-12-13T17:50:37.797Z,-4.06
2022-12-13T17:53:04.451Z,-4.04
2022-12-13T17:55:30.991Z,-4.01
2022-12-13T17:58:04.131Z,-3.99
2022-12-13T18:00:31.281Z,-3.98
2022-12-13T18:02:57.949Z,-3.95
2022-12-13T18:05:26.319Z,-3.94
2022-12-13T18:07:52.962Z,-3.95
2022-12-13T18:10:20.853Z,-3.95
2022-12-13T18:12:50.148Z,-4.00
2022-12-13T18:15:16.677Z,-4.02
2022-12-13T18:18:10.009Z,-4.01
2022-12-13T18:20:31.076Z,-3.99
2022-12-13T18:22:57.598Z,-3.97
2022-12-13T18:25:24.253Z,-3.98
2022-12-13T18:27:54.962Z,-4.04
2022-12-13T18:30:27.928Z,-4.07
2022-12-13T18:32:54.465Z,-4.06
2022-12-13T18:35:20.895Z,-4.08
2022-12-13T18:37:48.885Z,-4.12
2022-12-13T18:40:15.419Z,-4.12
2022-12-13T18:42:41.906Z,-4.12
2022-12-13T18:45:08.577Z,-4.12
2022-12-13T18:47:35.209Z,-4.18
2022-12-13T18:50:01.702Z,-4.21
2022-12-13T18:52:28.293Z,-4.22
2022-12-13T18:54:56.123Z,-4.21
2022-12-13T18:57:22.619Z,-4.24
2022-12-13T18:59:54.296Z,-4.21
2022-12-13T19:02:21.267Z,-4.17
2022-12-13T19:04:55.658Z,-4.14
2022-12-13T19:07:22.452Z,-4.13
2022-12-13T19:09:54.765Z,-4.13
2022-12-13T19:12:23.579Z,-4.12
2022-12-13T19:14:54.763Z,-4.09
2022-12-13T19:17:21.912Z,-4.08
2022-12-13T19:19:48.548Z,-4.06
2022-12-13T19:22:15.886Z,-4.04
2022-12-13T19:24:42.468Z,-4.03
2022-12-13T19:27:08.953Z,-4.02
2022-12-13T19:29:37.053Z,-4.05
2022-12-13T19:32:03.897Z,-4.05
2022-12-13T19:34:30.767Z,-4.06
2022-12-13T19:37:00.354Z,-4.09
2022-12-13T19:39:30.983Z,-4.10
2022-12-13T19:41:57.513Z,-4.09
2022-12-13T19:44:24.200Z,-4.06
2022-12-13T19:46:52.245Z,-4.04
2022-12-13T19:49:19.482Z,-4.04
2022-12-13T19:51:46.224Z,-4.04
2022-12-13T19:54:13.773Z,-4.05
2022-12-13T19:56:40.491Z,-4.06
2022-12-13T19:59:07.062Z,-4.12
2022-12-13T20:01:33.594Z,-4.12
2022-12-13T20:04:01.768Z,-4.14
2022-12-13T20:06:28.256Z,-4.15
2022-12-13T20:08:54.809Z,-4.16
2022-12-13T20:11:22.123Z,-4.16
2022-12-13T20:13:49.503Z,-4.18
2022-12-13T20:16:17.139Z,-4.20
2022-12-13T20:18:43.855Z,-4.19
2022-12-13T20:21:14.500Z,-4.23
2022-12-13T20:23:42.076Z,-4.24
2022-12-13T20:26:15.711Z,-4.22
2022-12-13T20:28:42.245Z,-4.22
2022-12-13T20:31:10.429Z,-4.19
2022-12-13T20:33:38.368Z,-4.16
2022-12-13T20:38:53.449Z,-4.10
2022-12-13T20:41:20.348Z,-4.08
2022-12-13T20:43:48.476Z,-4.03
2022-12-13T20:46:15.467Z,-4.00
2022-12-13T20:48:42.863Z,-3.94
2022-12-13T20:51:10.592Z,-3.91
2022-12-13T20:53:38.292Z,-3.89
2022-12-13T20:56:08.358Z,-3.87
2022-12-13T20:58:39.745Z,-3.85
2022-12-13T21:01:08.873Z,-3.88
2022-12-13T21:03:35.378Z,-3.90
2022-12-13T21:06:01.892Z,-3.90
2022-12-13T21:08:46.980Z,-3.93
2022-12-13T21:11:26.854Z,-3.91
2022-12-13T21:13:54.868Z,-3.88
2022-12-13T21:16:22.169Z,-3.88
2022-12-13T21:18:48.874Z,-3.88
2022-12-13T21:21:15.750Z,-3.87
2022-12-13T21:23:42.283Z,-3.85
2022-12-13T21:26:09.466Z,-3.83
2022-12-13T21:28:37.633Z,-3.80
2022-12-13T21:31:06.616Z,-3.81
2022-12-13T21:33:33.427Z,-3.82
2022-12-13T21:36:07.781Z,-3.84
2022-12-13T21:38:34.396Z,-3.84
2022-12-13T21:41:00.887Z,-3.85
2022-12-13T21:43:36.826Z,-3.85
2022-12-13T21:46:08.562Z,-3.85
2022-12-13T21:48:35.121Z,-3.86
2022-12-13T21:51:02.005Z,-3.84
2022-12-13T21:53:29.828Z,-3.82
2022-12-13T21:56:16.465Z,-3.81
2022-12-13T21:59:02.045Z,-3.80
2022-12-13T22:01:49.699Z,-3.81
2022-12-13T22:04:16.317Z,-3.82
2022-12-13T22:06:43.168Z,-3.85
2022-12-13T22:09:10.194Z,-3.89
2022-12-13T22:11:36.753Z,-3.91
2022-12-13T22:14:03.813Z,-3.94
2022-12-13T22:16:31.745Z,-3.97
2022-12-13T22:18:58.720Z,-3.98
2022-12-13T22:21:25.351Z,-3.92
2022-12-13T22:23:52.493Z,-3.92
2022-12-13T22:26:18.993Z,-3.93
2022-12-13T22:28:45.645Z,-3.96
2022-12-13T22:31:12.149Z,-3.97
2022-12-13T22:33:39.969Z,-3.97
2022-12-13T22:36:07.298Z,-4.00
2022-12-13T22:38:33.988Z,-4.00
2022-12-13T22:41:00.503Z,-3.96
2022-12-13T22:43:27.053Z,-3.94
2022-12-13T22:46:00.391Z,-3.94
2022-12-13T22:48:27.324Z,-3.95
2022-12-13T22:50:55.530Z,-3.97
2022-12-13T22:53:22.032Z,-3.94
2022-12-13T22:55:48.860Z,-3.92
2022-12-13T22:58:15.358Z,-3.88
2022-12-13T23:00:42.421Z,-3.85
2022-12-13T23:03:09.191Z,-3.83
2022-12-13T23:05:35.749Z,-3.80
2022-12-13T23:08:03.977Z,-3.75
2022-12-13T23:10:49.210Z,-3.72
2022-12-13T23:13:17.589Z,-3.71
2022-12-13T23:15:49.186Z,-3.70
2022-12-13T23:18:16.171Z,-3.64
2022-12-13T23:20:42.707Z,-3.61
2022-12-13T23:23:14.637Z,-3.60
2022-12-13T23:25:41.261Z,-3.58
2022-12-13T23:28:07.713Z,-3.57
2022-12-13T23:30:35.816Z,-3.60
2022-12-13T23:33:02.349Z,-3.58
2022-12-13T23:35:29.368Z,-3.56
2022-12-13T23:37:55.817Z,-3.53
2022-12-13T23:40:23.682Z,-3.51
2022-12-13T23:42:50.331Z,-3.49
2022-12-13T23:45:16.827Z,-3.46
2022-12-13T23:47:43.323Z,-3.48
2022-12-13T23:50:09.979Z,-3.50
2022-12-13T23:52:37.659Z,-3.53
2022-12-13T23:55:04.865Z,-3.55
2022-12-13T23:57:32.844Z,-3.55
2022-12-13T23:59:59.554Z,-3.53
